Time;durP1;ratioP1;P1;durP2;ratioP2;P2;SDS_P1;SDS_P2;PMS_P1;PMS_P2;Temp;Humidity;BMP_temperature;BMP_pressure;BME280_temperature;BME280_humidity;BME280_pressure;Samples;Min_cycle;Max_cycle;Signal;HPM_P1;HPM_P2
2023/02/17 00:01:31;;;;;;;155.60;74.10;;;7.50;99.90;;;6.07;100.00;101312.91;4926373;28;20050;-83
2023/02/17 00:03:58;;;;;;;153.93;72.70;;;7.50;99.90;;;6.04;100.00;101307.69;4918571;28;20034;-82
2023/02/17 00:06:27;;;;;;;161.05;74.22;;;7.50;99.90;;;6.01;100.00;101299.94;4888271;28;20046;-83
2023/02/17 00:08:53;;;;;;;158.95;75.43;;;7.50;99.90;;;6.00;100.00;101297.34;4933498;28;20559;-83
2023/02/17 00:11:21;;;;;;;156.93;73.38;;;7.40;99.90;;;5.95;100.00;101295.66;4917291;28;20042;-84
2023/02/17 00:13:48;;;;;;;160.23;74.90;;;7.40;99.90;;;5.98;100.00;101292.13;4917067;28;20055;-83
2023/02/17 00:16:25;;;;;;;152.05;73.18;;;7.40;99.90;;;5.99;100.00;101285.16;4897878;28;20047;-84
2023/02/17 00:18:58;;;;;;;161.05;75.35;;;7.40;99.90;;;6.00;100.00;101285.13;4925149;28;20031;-83
2023/02/17 00:21:30;;;;;;;158.23;74.50;;;7.40;99.90;;;5.99;100.00;101293.88;4931487;28;20133;-82
2023/02/17 00:23:56;;;;;;;170.93;76.18;;;7.50;99.90;;;6.00;100.00;101282.50;4913155;28;20038;-82
2023/02/17 00:26:22;;;;;;;176.30;77.97;;;7.40;99.90;;;6.03;100.00;101282.47;4930598;28;20033;-82
2023/02/17 00:28:49;;;;;;;183.35;80.25;;;7.50;99.90;;;6.03;100.00;101276.38;4934508;28;20046;-84
2023/02/17 00:31:21;;;;;;;185.15;80.20;;;7.50;99.90;;;6.06;100.00;101282.41;4938206;28;20055;-82
2023/02/17 00:33:48;;;;;;;183.55;79.78;;;7.50;99.90;;;6.06;100.00;101278.94;4917757;28;20119;-82
2023/02/17 00:36:18;;;;;;;206.73;82.03;;;7.50;99.90;;;6.06;100.00;101282.41;4923992;28;20043;-82
2023/02/17 00:38:44;;;;;;;206.40;83.07;;;7.50;99.90;;;6.05;100.00;101269.38;4935248;28;20601;-82
2023/02/17 00:41:16;;;;;;;201.60;81.80;;;7.50;99.90;;;6.02;100.00;101265.03;4917400;28;20708;-84
2023/02/17 00:43:41;;;;;;;204.48;83.07;;;7.50;99.90;;;6.05;100.00;101272.00;4922324;28;20492;-83
2023/02/17 00:46:07;;;;;;;206.20;82.25;;;7.50;99.90;;;6.06;100.00;101271.09;4918531;28;20107;-82
2023/02/17 00:48:33;;;;;;;204.18;82.72;;;7.50;99.90;;;6.03;100.00;101260.69;4896908;28;20403;-83
2023/02/17 00:50:59;;;;;;;214.80;86.13;;;7.40;99.90;;;6.01;100.00;101260.72;4920084;28;20133;-85
2023/02/17 00:53:25;;;;;;;212.00;83.80;;;7.40;99.90;;;6.01;100.00;101250.25;4902221;28;20035;-82
2023/02/17 00:55:56;;;;;;;213.88;83.95;;;7.40;99.90;;;6.03;100.00;101252.84;4934273;28;20344;-84
2023/02/17 00:58:22;;;;;;;223.93;86.60;;;7.40;99.90;;;6.00;100.00;101250.28;4932840;28;20073;-81
2023/02/17 01:00:48;;;;;;;234.65;87.20;;;7.40;99.90;;;6.01;100.00;101250.25;4915169;28;20025;-83
2023/02/17 01:03:14;;;;;;;210.80;84.88;;;7.40;99.90;;;6.02;100.00;101245.88;4903037;28;20031;-82
2023/02/17 01:05:48;;;;;;;228.55;86.20;;;7.40;99.90;;;6.01;100.00;101250.25;4903896;28;20023;-84
2023/02/17 01:08:16;;;;;;;226.90;85.53;;;7.40;99.90;;;5.98;100.00;101241.59;4930540;28;20062;-82
2023/02/17 01:10:44;;;;;;;216.48;86.20;;;;;;;5.95;100.00;101245.16;4911485;28;20051;-84
2023/02/17 01:13:14;;;;;;;210.95;86.80;;;7.40;99.90;;;5.92;100.00;101234.72;4915721;28;20100;-81
2023/02/17 01:15:44;;;;;;;224.73;84.70;;;7.40;99.90;;;5.90;100.00;101233.91;4922326;28;20078;-83
2023/02/17 01:18:10;;;;;;;217.73;86.82;;;7.40;99.90;;;5.88;100.00;101235.69;4929073;28;22877;-84
2023/02/17 01:20:45;;;;;;;222.60;88.78;;;7.30;99.90;;;5.88;100.00;101225.22;4914299;28;20036;-84
2023/02/17 01:23:12;;;;;;;248.57;88.65;;;7.30;99.90;;;5.84;100.00;101224.41;4921190;28;20067;-84
2023/02/17 01:25:49;;;;;;;249.10;91.72;;;7.30;99.90;;;5.83;100.00;101209.63;4924450;28;20490;-83
2023/02/17 01:28:20;;;;;;;243.90;93.68;;;7.30;99.90;;;5.84;100.00;101206.13;4934372;28;20118;-82
2023/02/17 01:30:50;;;;;;;245.45;94.53;;;7.30;99.90;;;5.81;100.00;101207.91;4916605;28;20077;-83
2023/02/17 01:33:16;;;;;;;254.32;94.00;;;7.30;99.90;;;5.80;100.00;101199.22;4902915;28;20513;-82
2023/02/17 01:35:41;;;;;;;256.77;92.82;;;7.30;99.90;;;5.79;100.00;101189.66;4953715;28;20127;-84
2023/02/17 01:38:07;;;;;;;254.30;95.18;;;7.30;99.90;;;5.76;100.00;101180.13;4935086;28;20027;-82
2023/02/17 01:40:33;;;;;;;269.58;97.07;;;7.20;99.90;;;5.75;100.00;101182.78;4936969;28;20026;-85
2023/02/17 01:42:59;;;;;;;269.05;99.30;;;7.20;99.90;;;5.75;100.00;101172.31;4905875;28;20058;-84
2023/02/17 01:45:46;;;;;;;297.55;99.82;;;7.20;99.90;;;5.77;100.00;101170.53;4935607;28;20051;-82
2023/02/17 01:48:16;;;;;;;274.08;97.43;;;;;;;5.73;100.00;101163.66;4909434;28;20084;-85
2023/02/17 01:50:59;;;;;;;303.50;103.20;;;7.20;99.90;;;5.76;100.00;101159.22;4920332;28;20035;-85
2023/02/17 01:53:36;;;;;;;280.10;97.57;;;7.20;99.90;;;5.68;100.00;101149.81;4959851;28;20030;-84
2023/02/17 01:56:03;;;;;;;288.50;100.72;;;7.20;99.90;;;5.71;100.00;101134.09;4933309;28;20042;-85
2023/02/17 01:58:55;;;;;;;327.00;104.25;;;7.20;99.90;;;5.68;100.00;101128.91;4909960;28;20078;-85
2023/02/17 02:01:22;;;;;;;297.20;100.05;;;7.20;99.90;;;5.66;100.00;101126.34;4876399;28;20047;-84
2023/02/17 02:03:53;;;;;;;290.88;101.60;;;;;;;5.67;100.00;101124.59;4935342;28;20035;-83
2023/02/17 02:06:24;;;;;;;286.13;100.78;;;7.20;99.90;;;5.66;100.00;101125.44;4953906;28;20062;-86
2023/02/17 02:09:03;;;;;;;311.90;103.00;;;7.20;99.90;;;5.66;100.00;101126.34;4923927;28;20042;-85
2023/02/17 02:11:29;;;;;;;299.40;102.07;;;7.20;99.90;;;5.62;100.00;101118.59;4925030;28;20054;-85
2023/02/17 02:14:05;;;;;;;329.75;104.68;;;7.20;99.90;;;5.65;100.00;101111.53;4904511;28;20486;-85
2023/02/17 02:16:58;;;;;;;293.27;100.80;;;7.20;99.90;;;5.66;100.00;101105.44;4901536;28;20030;-85
2023/02/17 02:20:01;;;;;;;290.88;99.13;;;7.10;99.90;;;5.65;100.00;101103.69;4931258;28;20455;-84
2023/02/17 02:22:53;;;;;;;314.58;103.85;;;7.10;99.90;;;5.67;100.00;101106.28;4935434;28;20050;-83
2023/02/17 02:26:03;;;;;;;298.92;99.28;;;7.20;99.90;;;5.66;100.00;101097.59;4924534;28;20054;-85
2023/02/17 02:29:22;;;;;;;290.13;99.20;;;7.10;99.90;;;5.71;100.00;101092.28;4904225;28;20598;-84
2023/02/17 02:32:28;;;;;;;301.27;100.38;;;7.20;99.90;;;5.68;100.00;101077.53;4923602;28;20059;-85
2023/02/17 02:35:05;;;;;;;285.40;98.33;;;7.10;99.90;;;5.67;100.00;101067.94;4892695;28;20050;-82
2023/02/17 02:37:52;;;;;;;291.55;102.00;;;7.10;99.90;;;5.64;100.00;101059.34;4902259;28;20037;-84
2023/02/17 02:40:28;;;;;;;267.80;98.05;;;7.20;99.90;;;5.65;100.00;101055.81;4908390;28;20054;-84
2023/02/17 02:42:54;;;;;;;279.80;100.22;;;7.20;99.90;;;5.67;100.00;101054.03;4927012;28;20480;-83
2023/02/17 02:45:23;;;;;;;276.60;99.93;;;7.20;99.90;;;5.68;100.00;101053.13;4944573;28;20038;-84
2023/02/17 02:47:58;;;;;;;267.90;98.28;;;7.20;99.90;;;5.76;100.00;101048.59;4892794;28;21017;-85
2023/02/17 02:51:10;;;;;;;270.95;97.30;;;7.20;99.90;;;5.73;100.00;101044.31;4896162;28;20034;-83
2023/02/17 02:53:51;;;;;;;230.27;91.90;;;;;;;5.72;100.00;101045.22;4872049;29;20540;-84
2023/02/17 02:56:54;;;;;;;258.50;97.03;;;7.20;99.90;;;5.73;100.00;101033.88;4903126;28;20161;-83
2023/02/17 02:59:57;;;;;;;254.23;95.82;;;7.20;99.90;;;5.73;100.00;101023.41;4919414;28;20765;-84
2023/02/17 03:02:35;;;;;;;256.95;95.28;;;7.20;99.90;;;5.77;100.00;101019.00;4934083;28;20046;-85
2023/02/17 03:05:14;;;;;;;243.75;94.22;;;7.30;99.90;;;5.79;100.00;101017.19;4897698;28;20038;-85
2023/02/17 03:07:53;;;;;;;259.50;97.43;;;;;;;5.79;100.00;101014.59;4931702;28;20030;-84
2023/02/17 03:10:20;;;;;;;262.60;97.43;;;7.30;99.90;;;5.81;100.00;101007.56;4913320;28;20058;-85
2023/02/17 03:12:46;;;;;;;257.67;96.20;;;7.30;99.90;;;5.85;100.00;100997.91;4908028;28;20035;-83
2023/02/17 03:15:23;;;;;;;256.73;97.50;;;7.30;99.90;;;5.85;100.00;100985.72;4897587;28;20050;-84
2023/02/17 03:17:49;;;;;;;272.88;96.32;;;7.30;99.90;;;5.86;100.00;100976.97;4943526;28;20050;-84
2023/02/17 03:20:15;;;;;;;262.98;98.43;;;7.30;99.90;;;5.90;100.00;100970.78;4909852;28;20094;-83
2023/02/17 03:22:55;;;;;;;263.92;98.53;;;7.30;99.90;;;5.91;100.00;100964.63;4912345;28;20433;-84
2023/02/17 03:25:21;;;;;;;263.08;97.32;;;7.40;99.90;;;5.88;100.00;100959.50;4904757;28;20043;-83
2023/02/17 03:27:47;;;;;;;253.98;94.38;;;7.40;99.90;;;5.91;100.00;100964.63;4904170;28;20324;-83
2023/02/17 03:30:18;;;;;;;243.88;93.50;;;;;;;5.94;100.00;100958.50;4865270;29;21003;-83
2023/02/17 03:32:45;;;;;;;235.15;94.32;;;7.40;99.90;;;5.97;100.00;100960.22;4920485;28;20075;-85
2023/02/17 03:35:14;;;;;;;224.88;91.57;;;7.40;99.90;;;5.97;100.00;100962.81;4872205;28;20043;-85
2023/02/17 03:37:49;;;;;;;215.90;86.78;;;7.40;99.90;;;5.95;100.00;100962.84;4938351;28;20042;-84
2023/02/17 03:40:15;;;;;;;220.63;89.07;;;7.40;99.90;;;6.00;100.00;100966.19;4922790;28;20030;-84
2023/02/17 03:42:41;;;;;;;192.95;84.65;;;7.50;99.90;;;6.00;100.00;100968.81;4919757;28;20073;-84
2023/02/17 03:45:07;;;;;;;207.68;84.95;;;7.50;99.90;;;6.04;100.00;100965.25;4871942;28;20043;-82
2023/02/17 03:47:40;;;;;;;188.85;82.65;;;;;;;6.05;100.00;100959.13;4918039;28;20041;-84
2023/02/17 03:50:07;;;;;;;183.57;79.82;;;7.50;99.90;;;6.07;100.00;100956.47;4897533;28;20080;-85
2023/02/17 03:52:33;;;;;;;184.73;79.95;;;7.60;99.90;;;6.10;100.00;100953.78;4939613;28;20546;-85
2023/02/17 03:54:59;;;;;;;177.70;79.57;;;7.60;99.90;;;6.12;100.00;100952.00;4907243;28;20042;-84
2023/02/17 03:57:34;;;;;;;164.77;76.18;;;7.60;99.90;;;6.14;100.00;100942.34;4918454;28;20034;-82
2023/02/17 04:00:00;;;;;;;166.50;73.85;;;7.60;99.90;;;6.14;100.00;100942.34;4925955;28;20046;-84
2023/02/17 04:02:26;;;;;;;159.15;75.75;;;7.60;99.90;;;6.18;100.00;100944.00;4877744;28;20065;-83
2023/02/17 04:04:51;;;;;;;151.82;73.15;;;7.60;99.90;;;6.21;100.00;100943.06;4872784;28;20031;-83
2023/02/17 04:07:17;;;;;;;152.43;74.95;;;7.70;99.90;;;6.24;100.00;100941.25;4895265;28;20039;-82
2023/02/17 04:09:44;;;;;;;141.05;68.60;;;;;;;6.28;100.00;100948.09;4887740;28;20039;-83
2023/02/17 04:12:17;;;;;;;155.07;74.32;;;7.70;99.90;;;6.31;100.00;100948.03;4902523;28;20059;-81
2023/02/17 04:14:42;;;;;;;146.73;71.32;;;7.70;99.90;;;6.29;100.00;100947.19;4891288;28;20063;-85
2023/02/17 04:17:15;;;;;;;150.07;69.07;;;7.70;99.90;;;6.30;100.00;100948.91;4930721;28;20065;-84
2023/02/17 04:19:44;;;;;;;146.48;71.18;;;7.70;99.90;;;6.30;100.00;100941.06;4947968;28;20090;-84
2023/02/17 04:22:10;;;;;;;149.52;71.47;;;7.80;99.90;;;6.33;100.00;100943.63;4916761;28;20046;-85
2023/02/17 04:24:36;;;;;;;154.85;74.03;;;7.80;99.90;;;6.35;100.00;100931.34;4919693;28;20031;-83
2023/02/17 04:27:14;;;;;;;146.88;71.47;;;7.80;99.90;;;6.35;100.00;100933.97;4912481;28;20058;-84
2023/02/17 04:29:40;;;;;;;147.85;72.40;;;;;;;6.33;100.00;100922.69;4861397;28;20023;-84
2023/02/17 04:32:11;;;;;;;152.02;70.55;;;;;;;6.36;100.00;100927.81;4893440;28;20063;-82
2023/02/17 04:34:37;;;;;;;153.40;71.88;;;7.80;99.90;;;6.36;100.00;100916.50;4916379;28;20089;-83
2023/02/17 04:37:03;;;;;;;151.40;72.80;;;7.80;99.90;;;6.42;100.00;100920.75;4940093;28;20031;-83
2023/02/17 04:39:29;;;;;;;151.18;72.75;;;7.80;99.90;;;6.38;100.00;100926.94;4935473;28;20047;-82
2023/02/17 04:41:54;;;;;;;159.15;74.85;;;7.80;99.90;;;6.42;100.00;100912.91;4926148;28;20038;-83
2023/02/17 04:44:26;;;;;;;148.30;73.57;;;7.90;99.90;;;6.42;100.00;100923.34;4933910;28;20622;-84
2023/02/17 04:46:54;;;;;;;146.90;70.22;;;;;;;6.46;100.00;100925.00;4904038;28;20035;-84
2023/02/17 04:49:20;;;;;;;157.75;73.95;;;7.90;99.90;;;6.48;100.00;100917.94;4922676;28;20102;-85
2023/02/17 04:51:46;;;;;;;152.85;72.40;;;7.90;99.90;;;6.48;100.00;100920.56;4948627;28;20034;-84
2023/02/17 04:54:11;;;;;;;146.82;70.95;;;7.90;99.90;;;6.47;100.00;100911.00;4904128;28;20036;-83
2023/02/17 04:56:42;;;;;;;148.93;70.47;;;7.90;99.90;;;6.46;100.00;100894.47;4899900;28;20045;-82
2023/02/17 04:59:08;;;;;;;151.40;71.53;;;7.90;99.90;;;6.48;100.00;100891.78;4923487;28;20030;-83
2023/02/17 05:01:34;;;;;;;139.27;66.88;;;7.90;99.90;;;6.48;100.00;100892.66;4878351;28;20161;-82
2023/02/17 05:04:00;;;;;;;150.95;69.57;;;7.90;99.90;;;6.52;100.00;100903.88;4909651;28;20049;-83
2023/02/17 05:06:25;;;;;;;145.75;67.93;;;7.90;99.90;;;6.55;100.00;100911.66;4921995;28;20031;-84
2023/02/17 05:08:57;;;;;;;142.55;70.63;;;8.00;99.90;;;6.54;100.00;100902.97;4919615;28;20758;-84
2023/02/17 05:11:23;;;;;;;153.40;76.55;;;;;;;6.56;100.00;100888.06;4897002;28;20035;-86
2023/02/17 05:13:49;;;;;;;157.50;79.97;;;;;;;6.56;100.00;100879.34;4950402;28;20043;-84
2023/02/17 05:16:15;;;;;;;148.70;74.78;;;8.00;99.90;;;6.55;100.00;100877.66;4927196;28;20104;-83
2023/02/17 05:18:41;;;;;;;151.80;75.93;;;8.00;99.90;;;6.58;100.00;100872.31;4934317;28;20035;-85
2023/02/17 05:21:06;;;;;;;131.10;66.25;;;8.00;99.90;;;6.61;100.00;100877.50;4881087;28;20039;-83
2023/02/17 05:23:39;;;;;;;135.43;65.30;;;8.00;99.90;;;6.63;100.00;100875.69;4933227;28;20039;-82
2023/02/17 05:26:08;;;;;;;131.00;67.28;;;8.10;99.90;;;6.64;100.00;100860.84;4927396;28;20095;-82
2023/02/17 05:28:35;;;;;;;134.90;67.25;;;8.10;99.90;;;6.64;100.00;100845.13;4924069;28;20034;-84
2023/02/17 05:31:06;;;;;;;134.23;66.63;;;8.10;99.90;;;6.64;100.00;100839.91;4905290;28;20118;-83
2023/02/17 05:33:33;;;;;;;136.70;66.05;;;8.10;99.90;;;6.70;100.00;100843.19;4918813;28;20046;-85
2023/02/17 05:36:10;;;;;;;135.40;66.22;;;8.20;99.90;;;6.71;100.00;100836.19;4940525;28;20518;-83
2023/02/17 05:38:37;;;;;;;135.52;64.28;;;8.10;99.90;;;6.74;100.00;100836.97;4930903;28;20576;-82
2023/02/17 05:41:03;;;;;;;132.93;64.32;;;8.20;99.90;;;6.81;100.00;100842.91;4914150;28;20035;-84
2023/02/17 05:43:29;;;;;;;122.78;60.83;;;8.20;99.90;;;6.80;100.00;100835.06;4917019;28;20035;-83
2023/02/17 05:45:55;;;;;;;121.30;62.63;;;8.20;99.90;;;6.81;100.00;100834.19;4917513;28;20098;-83
2023/02/17 05:48:30;;;;;;;123.40;61.40;;;8.20;99.90;;;6.78;100.00;100828.13;4931686;28;20113;-82
2023/02/17 05:50:55;;;;;;;133.23;63.67;;;8.30;99.90;;;6.85;100.00;100820.13;4941368;28;20061;-82
2023/02/17 05:53:21;;;;;;;131.50;64.00;;;8.30;99.90;;;6.84;100.00;100816.63;4935992;28;20038;-85
2023/02/17 05:55:47;;;;;;;139.30;64.20;;;8.30;99.90;;;6.84;100.00;100814.00;4915178;28;20034;-83
2023/02/17 05:58:34;;;;;;;136.10;63.25;;;;;;;6.86;100.00;100803.50;4934579;28;20057;-84
2023/02/17 06:01:02;;;;;;;;;;;8.30;99.90;;;6.81;100.00;100806.25;4924986;28;20074;-84
2023/02/17 06:03:27;;;;;;;131.15;62.05;;;8.30;99.90;;;6.83;100.00;100816.69;4899937;28;19911;-83
2023/02/17 06:05:53;;;;;;;138.95;63.90;;;8.30;99.90;;;6.85;100.00;100818.34;4917409;28;20208;-83
2023/02/17 06:08:19;;;;;;;131.57;65.65;;;8.30;99.90;;;6.85;100.00;100810.50;4890143;28;21489;-85
2023/02/17 06:10:51;;;;;;;130.75;63.38;;;8.30;99.90;;;6.88;100.00;100806.94;4904594;28;20050;-82
2023/02/17 06:13:17;;;;;;;123.78;62.58;;;8.40;99.90;;;6.90;100.00;100799.88;4893505;28;20683;-83
2023/02/17 06:15:44;;;;;;;132.77;62.30;;;;;;;6.92;100.00;100803.31;4923789;28;20083;-83
2023/02/17 06:18:12;;;;;;;137.15;63.35;;;8.40;99.90;;;6.94;100.00;100797.13;4919366;28;20062;-83
2023/02/17 06:20:43;;;;;;;128.48;62.40;;;8.40;99.90;;;6.94;100.00;100793.66;4917350;28;20608;-85
2023/02/17 06:23:10;;;;;;;136.43;63.97;;;8.40;99.90;;;6.97;100.00;100798.78;4884802;28;20043;-84
2023/02/17 06:25:36;;;;;;;126.78;61.17;;;8.40;99.90;;;6.95;100.00;100787.50;4896728;28;20078;-84
2023/02/17 06:28:03;;;;;;;131.10;63.72;;;;;;;6.99;100.00;100789.13;4929718;28;20035;-83
2023/02/17 06:30:36;;;;;;;133.35;63.25;;;8.40;99.90;;;6.98;100.00;100782.19;4891805;28;20423;-84
2023/02/17 06:33:02;;;;;;;140.13;63.75;;;8.40;99.90;;;7.04;100.00;100781.13;4879836;28;20044;-84
2023/02/17 06:35:29;;;;;;;128.80;62.88;;;;;;;7.04;100.00;100774.16;4942524;28;20023;-83
2023/02/17 06:37:55;;;;;;;122.97;59.33;;;8.50;99.90;;;7.07;100.00;100766.19;4930529;28;20042;-85
2023/02/17 06:40:26;;;;;;;133.95;61.97;;;8.50;99.90;;;7.09;100.00;100771.38;4939151;28;20050;-84
2023/02/17 06:42:51;;;;;;;129.57;61.00;;;8.50;99.90;;;7.12;100.00;100766.03;4916127;28;20042;-84
2023/02/17 06:45:17;;;;;;;133.57;61.35;;;8.60;99.90;;;7.17;100.00;100772.84;4891571;28;20030;-84
2023/02/17 06:47:43;;;;;;;135.70;60.85;;;8.60;99.90;;;7.15;100.00;100760.72;4901563;28;20113;-85
2023/02/17 06:50:10;;;;;;;136.50;61.63;;;8.60;99.90;;;7.19;100.00;100759.69;4914115;28;20046;-84
2023/02/17 06:52:36;;;;;;;129.27;59.25;;;8.60;99.90;;;7.16;100.00;100754.56;4904374;28;20046;-84
2023/02/17 06:55:06;;;;;;;137.45;63.08;;;8.60;99.90;;;7.24;100.00;100751.72;4936424;28;20031;-84
2023/02/17 06:57:32;;;;;;;137.27;61.47;;;8.60;99.90;;;7.22;100.00;100746.50;4878189;28;20051;-84
2023/02/17 06:59:58;;;;;;;133.27;60.63;;;8.60;99.90;;;7.23;100.00;100756.06;4888509;28;20092;-84
2023/02/17 07:02:23;;;;;;;138.18;61.17;;;8.70;99.90;;;7.24;100.00;100752.56;4916074;28;20046;-84
2023/02/17 07:04:50;;;;;;;131.95;60.35;;;;;;;7.25;100.00;100753.41;4887342;28;20040;-83
2023/02/17 07:07:16;;;;;;;124.88;59.90;;;;;;;7.26;100.00;100761.22;4913290;28;20056;-84
2023/02/17 07:09:50;;;;;;;136.40;62.25;;;8.70;99.90;;;7.33;100.00;100757.50;4948009;28;20040;-85
2023/02/17 07:12:16;;;;;;;127.57;60.03;;;8.70;99.90;;;7.29;100.00;100739.31;4901015;28;20042;-82
2023/02/17 07:14:42;;;;;;;121.03;58.28;;;8.80;99.90;;;7.36;100.00;100746.94;4926368;28;20030;-83
2023/02/17 07:17:08;;;;;;;128.57;59.85;;;8.80;99.90;;;7.38;100.00;100744.25;4918841;28;20045;-82
2023/02/17 07:19:43;;;;;;;138.95;62.13;;;8.80;99.90;;;7.38;100.00;100745.09;4914410;28;20039;-82
2023/02/17 07:22:09;;;;;;;129.75;60.55;;;8.80;99.90;;;7.40;100.00;100742.44;4921422;28;20042;-82
2023/02/17 07:24:34;;;;;;;132.43;60.40;;;8.80;99.90;;;7.46;100.00;100736.13;4916361;28;20039;-81
2023/02/17 07:27:09;;;;;;;125.68;59.25;;;8.80;99.90;;;7.41;100.00;100731.06;4910446;28;20035;-84
2023/02/17 07:29:35;;;;;;;118.50;57.35;;;8.90;99.90;;;7.44;100.00;100730.94;4907949;28;20094;-81
2023/02/17 07:32:01;;;;;;;124.15;59.00;;;8.90;99.90;;;7.48;100.00;100732.56;4884156;28;20551;-83
2023/02/17 07:34:27;;;;;;;128.73;58.65;;;8.90;99.90;;;7.48;100.00;100724.69;4939910;28;21236;-82
2023/02/17 07:36:53;;;;;;;127.53;59.72;;;8.90;99.90;;;7.53;100.00;100716.66;4925496;28;20070;-83
2023/02/17 07:39:21;;;;;;;121.00;58.83;;;8.90;99.90;;;7.53;100.00;100709.66;4928535;28;20034;-83
2023/02/17 07:41:47;;;;;;;121.28;59.28;;;9.00;99.90;;;7.52;100.00;100701.88;4913461;28;20296;-81
2023/02/17 07:44:13;;;;;;;124.18;57.03;;;9.00;99.90;;;7.53;100.00;100704.41;4933901;28;22323;-82
2023/02/17 07:46:39;;;;;;;115.90;55.00;;;9.00;99.90;;;7.57;100.00;100695.53;4941928;28;20117;-82
2023/02/17 07:49:05;;;;;;;105.50;52.58;;;9.00;99.90;;;7.59;100.00;100701.59;4891256;28;20043;-81
2023/02/17 07:51:31;;;;;;;111.18;55.55;;;9.00;99.90;;;7.62;100.00;100702.41;4889763;28;20077;-83
2023/02/17 07:53:57;;;;;;;111.18;55.00;;;9.00;99.90;;;7.65;100.00;100689.22;4909881;28;20128;-80
2023/02/17 07:56:28;;;;;;;105.35;52.30;;;9.10;99.90;;;7.65;100.00;100683.97;4905611;28;20060;-83
2023/02/17 07:58:54;;;;;;;97.72;51.88;;;9.10;99.90;;;7.66;100.00;100675.19;4906433;28;20107;-81
2023/02/17 08:01:23;;;;;;;105.22;52.20;;;9.10;99.90;;;7.71;100.00;100674.13;4911580;28;20118;-81
2023/02/17 08:03:54;;;;;;;109.63;52.78;;;9.10;99.90;;;7.70;100.00;100667.16;4911471;28;20476;-80
2023/02/17 08:06:24;;;;;;;99.10;50.03;;;9.10;99.90;;;7.73;100.00;100668.78;4895551;28;20053;-81
2023/02/17 08:14:27;;;;;;;96.15;47.30;;;9.20;99.90;;;7.83;100.00;100638.72;4929948;28;20577;-81
2023/02/17 08:16:59;;;;;;;89.47;45.65;;;;;;;7.87;100.00;100636.88;4955194;28;20031;-81
2023/02/17 08:19:25;;;;;;;91.03;45.70;;;9.30;99.90;;;7.88;100.00;100631.53;4926934;28;20153;-80
2023/02/17 08:21:52;;;;;;;90.28;46.08;;;;;;;7.96;100.00;100637.38;4881222;28;20038;-82
2023/02/17 08:24:25;;;;;;;78.20;41.92;;;9.30;99.90;;;7.98;100.00;100632.06;4942861;28;20053;-82
2023/02/17 08:26:52;;;;;;;94.80;44.75;;;9.40;99.90;;;8.04;100.00;100633.63;4933997;28;20361;-81
2023/02/17 08:29:19;;;;;;;80.03;42.53;;;9.40;99.90;;;8.08;100.00;100624.69;4942525;28;20144;-80
2023/02/17 08:31:45;;;;;;;78.57;41.85;;;9.50;99.90;;;8.18;100.00;100621.66;4904333;28;20649;-81
2023/02/17 08:34:19;;;;;;;74.55;40.78;;;9.50;99.90;;;8.23;100.00;100611.03;4935398;28;20061;-81
2023/02/17 08:36:45;;;;;;;71.72;40.22;;;9.60;99.90;;;8.27;100.00;100604.75;4895135;28;20044;-81
2023/02/17 08:39:15;;;;;;;70.40;39.17;;;9.60;99.90;;;8.28;100.00;100593.31;4919697;28;20090;-82
2023/02/17 08:41:41;;;;;;;65.85;37.30;;;9.70;99.90;;;8.28;100.00;100588.06;4892720;28;20066;-81
2023/02/17 08:44:15;;;;;;;62.83;36.47;;;9.70;99.90;;;8.28;100.00;100588.06;4914705;28;20050;-82
2023/02/17 08:46:42;;;;;;;65.28;35.67;;;9.70;99.90;;;8.23;100.00;100579.53;4941679;28;20046;-83
2023/02/17 08:49:13;;;;;;;61.83;33.67;;;9.70;99.90;;;8.21;100.00;100584.84;4915327;28;20063;-81
2023/02/17 08:51:40;;;;;;;75.95;37.80;;;9.60;99.90;;;8.22;100.00;100583.06;4899371;28;20114;-82
2023/02/17 08:54:09;;;;;;;72.03;37.72;;;9.60;99.90;;;8.19;100.00;100575.34;4903034;28;20130;-80
2023/02/17 08:56:45;;;;;;;63.78;35.22;;;9.60;99.90;;;8.14;100.00;100569.38;4923221;28;20026;-82
2023/02/17 08:59:11;;;;;;;;;;;9.60;99.90;;;8.13;100.00;100565.06;4956224;28;20042;-83
2023/02/17 09:01:38;;;;;;;66.50;34.75;;;9.60;99.90;;;8.18;100.00;100560.50;4931454;28;19944;-81
2023/02/17 09:04:15;;;;;;;58.78;34.38;;;9.60;99.90;;;8.18;100.00;100561.34;4956649;28;20973;-82
2023/02/17 09:06:45;;;;;;;57.47;32.75;;;9.60;99.90;;;8.21;100.00;100558.63;4946657;28;20070;-82
2023/02/17 09:09:34;;;;;;;59.15;33.92;;;9.60;99.90;;;8.26;100.00;100555.81;4920530;28;20161;-82
2023/02/17 09:12:00;;;;;;;59.05;33.65;;;9.70;99.90;;;8.24;100.00;100541.91;4973275;28;20050;-82
2023/02/17 09:14:27;;;;;;;59.33;32.65;;;9.70;99.90;;;8.27;100.00;100536.53;4951135;28;20043;-82
2023/02/17 09:17:03;;;;;;;56.20;31.90;;;9.70;99.90;;;8.29;100.00;100526.81;4907794;28;20039;-83
2023/02/17 09:19:29;;;;;;;54.55;30.55;;;9.70;99.90;;;8.28;100.00;100525.13;4906450;28;20031;-82
2023/02/17 09:21:55;;;;;;;47.60;28.13;;;9.70;99.90;;;8.28;100.00;100519.03;4916360;28;20050;-82
2023/02/17 09:24:27;;;;;;;46.58;28.08;;;9.70;99.90;;;8.28;100.00;100509.38;4955148;28;20039;-84
2023/02/17 09:26:54;;;;;;;51.88;28.83;;;9.70;99.90;;;8.32;100.00;100507.50;4918605;28;20528;-84
2023/02/17 09:29:23;;;;;;;48.58;28.52;;;9.70;99.90;;;8.34;100.00;100490.78;4960746;28;20054;-84
2023/02/17 09:31:53;;;;;;;49.95;26.88;;;9.80;99.90;;;8.34;100.00;100484.69;4971819;28;20790;-83
2023/02/17 09:34:19;;;;;;;53.63;28.55;;;10.00;99.90;;;8.38;100.00;100492.34;4940810;28;20034;-82
2023/02/17 09:36:45;;;;;;;47.30;27.90;;;9.80;99.90;;;8.40;100.00;100482.69;4933775;28;20069;-83
2023/02/17 09:39:29;;;;;;;51.25;26.77;;;9.80;99.90;;;8.43;100.00;100467.72;4911945;28;20052;-83
2023/02/17 09:41:59;;;;;;;41.30;25.23;;;;;;;8.41;100.00;100466.00;4900131;28;20219;-82
2023/02/17 09:44:50;;;;;;;39.22;24.25;;;9.80;99.90;;;8.42;100.00;100456.38;4925442;28;20046;-82
2023/02/17 09:47:39;;;;;;;40.28;24.88;;;9.80;99.90;;;8.42;100.00;100440.63;4927142;28;20042;-81
2023/02/17 09:51:07;;;;;;;40.72;24.25;;;9.90;99.90;;;8.44;100.00;100441.41;4957319;28;20074;-83
2023/02/17 09:54:25;;;;;;;41.60;23.52;;;9.80;99.90;;;8.39;100.00;100430.22;4938753;28;20175;-83
2023/02/17 09:57:00;;;;;;;38.03;22.35;;;9.80;99.90;;;8.41;100.00;100420.56;4935696;28;20470;-82
2023/02/17 09:59:54;;;;;;;37.30;21.70;;;9.80;99.90;;;8.37;100.00;100418.94;4902571;28;20041;-81
2023/02/17 10:03:15;;;;;;;32.97;19.98;;;9.80;99.90;;;8.32;100.00;100413.06;4954904;28;20065;-84
2023/02/17 10:05:54;;;;;;;35.10;21.05;;;9.80;99.90;;;8.31;100.00;100396.44;4947449;28;20041;-83
2023/02/17 10:08:44;;;;;;;37.47;22.00;;;9.80;99.90;;;8.37;100.00;100384.84;4969733;28;20048;-82
2023/02/17 10:11:49;;;;;;;33.55;20.35;;;9.80;99.90;;;8.34;100.00;100377.97;4948543;28;20051;-81
2023/02/17 10:14:47;;;;;;;38.38;22.33;;;9.80;99.90;;;8.37;100.00;100374.34;4924217;28;20046;-78
2023/02/17 10:17:47;;;;;;;34.13;20.17;;;9.80;99.90;;;8.38;100.00;100381.28;4930691;28;20304;-81
2023/02/17 10:20:32;;;;;;;38.92;22.67;;;9.80;99.90;;;8.40;100.00;100374.22;4939035;28;20261;-81
2023/02/17 10:23:23;;;;;;;37.60;22.27;;;9.80;99.90;;;8.40;100.00;100372.50;4939265;28;20591;-80
2023/02/17 10:26:26;;;;;;;37.55;20.95;;;9.80;99.90;;;8.43;100.00;100361.00;4930910;28;20034;-79
2023/02/17 10:29:15;;;;;;;34.80;20.08;;;9.90;99.90;;;8.45;100.00;100351.28;4960559;28;20045;-81
2023/02/17 10:32:09;;;;;;;33.75;20.40;;;9.80;99.90;;;8.45;100.00;100348.69;4908572;28;20039;-82